createdAt,value
2023-03-29T00:00:03.957Z,1011.73
2023-03-29T00:03:11.837Z,1011.75
2023-03-29T00:06:21.412Z,1011.60
2023-03-29T00:09:29.224Z,1011.64
2023-03-29T00:12:36.685Z,1011.59
2023-03-29T00:15:45.374Z,1011.55
2023-03-29T00:18:53.101Z,1011.59
2023-03-29T00:22:00.485Z,1011.49
2023-03-29T00:25:09.198Z,1011.46
2023-03-29T00:28:16.817Z,1011.45
2023-03-29T00:31:24.158Z,1011.36
2023-03-29T00:34:32.565Z,1011.39
2023-03-29T00:37:40.146Z,1011.37
2023-03-29T00:40:47.795Z,1011.33
2023-03-29T00:43:56.618Z,1011.32
2023-03-29T00:47:04.125Z,1011.29
2023-03-29T00:50:11.745Z,1011.35
2023-03-29T00:53:19.372Z,1011.26
2023-03-29T00:56:27.764Z,1011.16
2023-03-29T00:59:35.706Z,1011.14
2023-03-29T01:02:43.028Z,1011.13
2023-03-29T01:05:51.765Z,1011.08
2023-03-29T01:08:59.565Z,1011.04
2023-03-29T01:12:06.818Z,1010.99
2023-03-29T01:15:15.670Z,1010.95
2023-03-29T01:18:23.154Z,1010.90
2023-03-29T01:21:30.620Z,1010.79
2023-03-29T01:24:39.340Z,1010.83
2023-03-29T01:27:46.641Z,1010.82
2023-03-29T01:30:54.410Z,1010.75
2023-03-29T01:34:01.769Z,1010.74
2023-03-29T01:37:10.737Z,1010.70
2023-03-29T01:40:18.380Z,1010.65
2023-03-29T01:43:25.265Z,1010.61
2023-03-29T01:46:34.312Z,1010.59
2023-03-29T01:49:41.504Z,1010.48
2023-03-29T01:52:48.438Z,1010.48
2023-03-29T01:55:57.578Z,1010.41
2023-03-29T01:59:05.013Z,1010.41
2023-03-29T02:02:12.187Z,1010.37
2023-03-29T02:05:21.094Z,1010.43
2023-03-29T02:08:28.308Z,1010.43
2023-03-29T02:11:35.413Z,1010.35
2023-03-29T02:14:43.133Z,1010.36
2023-03-29T02:17:51.409Z,1010.40
2023-03-29T02:20:59.271Z,1010.43
2023-03-29T02:24:06.655Z,1010.38
2023-03-29T02:27:15.679Z,1010.32
2023-03-29T02:30:22.832Z,1010.28
2023-03-29T02:33:30.041Z,1010.23
2023-03-29T02:36:39.000Z,1010.28
2023-03-29T02:39:45.767Z,1010.18
2023-03-29T02:42:53.300Z,1010.15
2023-03-29T02:46:02.144Z,1010.19
2023-03-29T02:49:08.943Z,1010.06
2023-03-29T02:52:16.422Z,1010.02
2023-03-29T02:55:24.071Z,1010.05
2023-03-29T02:58:32.396Z,1010.05
2023-03-29T03:01:40.056Z,1009.93
2023-03-29T03:04:46.886Z,1009.84
2023-03-29T03:07:55.964Z,1009.86
2023-03-29T03:11:03.734Z,1009.85
2023-03-29T03:14:10.690Z,1009.82
2023-03-29T03:17:19.539Z,1009.81
2023-03-29T03:20:26.752Z,1009.77
2023-03-29T03:23:34.034Z,1009.77
2023-03-29T03:26:43.368Z,1009.65
2023-03-29T03:29:50.295Z,1009.76
2023-03-29T03:32:57.825Z,1009.81
2023-03-29T03:36:06.437Z,1009.78
2023-03-29T03:39:13.802Z,1009.68
2023-03-29T03:42:21.111Z,1009.73
2023-03-29T03:45:28.471Z,1009.71
2023-03-29T03:48:37.529Z,1009.68
2023-03-29T03:51:44.491Z,1009.73
2023-03-29T03:54:52.117Z,1009.66
2023-03-29T03:58:01.438Z,1009.53
2023-03-29T04:01:08.324Z,1009.53
2023-03-29T04:04:15.793Z,1009.48
2023-03-29T04:07:24.606Z,1009.55
2023-03-29T04:10:31.518Z,1009.53
2023-03-29T04:13:38.999Z,1009.48
2023-03-29T04:16:47.756Z,1009.47
2023-03-29T04:19:54.688Z,1009.47
2023-03-29T04:23:02.446Z,1009.33
2023-03-29T04:26:09.554Z,1009.29
2023-03-29T04:29:18.138Z,1009.23
2023-03-29T04:32:25.988Z,1009.17
2023-03-29T04:35:32.800Z,1009.16
2023-03-29T04:38:41.398Z,1009.21
2023-03-29T04:41:49.050Z,1009.15
2023-03-29T04:44:56.472Z,1009.05
2023-03-29T04:48:05.032Z,1009.06
2023-03-29T04:51:12.217Z,1009.02
2023-03-29T04:54:19.696Z,1008.96
2023-03-29T04:57:28.426Z,1008.95
2023-03-29T05:00:35.218Z,1008.93
2023-03-29T05:03:42.764Z,1008.99
2023-03-29T05:06:50.358Z,1008.97
2023-03-29T05:09:58.676Z,1009.05
2023-03-29T05:13:06.283Z,1008.92
2023-03-29T05:16:13.509Z,1008.97
2023-03-29T05:19:22.011Z,1009.01
2023-03-29T05:22:29.672Z,1008.91
2023-03-29T05:25:36.755Z,1008.90
2023-03-29T05:28:45.358Z,1008.95
2023-03-29T05:31:52.848Z,1008.98
2023-03-29T05:34:59.936Z,1008.95
2023-03-29T05:38:08.544Z,1008.92
2023-03-29T05:41:16.272Z,1008.88
2023-03-29T05:44:23.601Z,1008.92
2023-03-29T05:47:31.125Z,1008.94
2023-03-29T05:50:40.076Z,1008.90
2023-03-29T05:53:47.304Z,1008.86
2023-03-29T05:56:54.574Z,1008.85
2023-03-29T06:00:03.040Z,1008.78
2023-03-29T06:03:19.822Z,1008.80
2023-03-29T06:06:14.822Z,1008.78
2023-03-29T06:09:23.468Z,1008.80
2023-03-29T06:12:31.063Z,1008.76
2023-03-29T06:15:37.942Z,1008.78
2023-03-29T06:18:46.995Z,1008.79
2023-03-29T06:21:54.437Z,1008.81
2023-03-29T06:25:01.222Z,1008.81
2023-03-29T06:28:09.997Z,1008.77
2023-03-29T06:31:17.442Z,1008.74
2023-03-29T06:34:24.645Z,1008.75
2023-03-29T06:37:31.815Z,1008.74
2023-03-29T06:40:40.477Z,1008.74
2023-03-29T06:43:47.930Z,1008.75
2023-03-29T06:46:55.138Z,1008.71
2023-03-29T06:50:03.818Z,1008.73
2023-03-29T06:53:11.229Z,1008.71
2023-03-29T06:56:18.353Z,1008.75
2023-03-29T06:59:27.100Z,1008.65
2023-03-29T07:02:34.869Z,1008.65
2023-03-29T07:05:42.089Z,1008.78
2023-03-29T07:08:50.841Z,1008.76
2023-03-29T07:11:58.283Z,1008.68
2023-03-29T07:15:05.262Z,1008.72
2023-03-29T07:18:12.930Z,1008.71
2023-03-29T07:21:21.871Z,1008.67
2023-03-29T07:24:28.725Z,1008.67
2023-03-29T07:27:36.292Z,1008.66
2023-03-29T07:30:45.379Z,1008.59
2023-03-29T07:33:52.234Z,1008.63
2023-03-29T07:36:59.613Z,1008.54
2023-03-29T07:40:08.229Z,1008.57
2023-03-29T07:43:15.304Z,1008.63
2023-03-29T07:46:22.988Z,1008.57
2023-03-29T07:49:31.606Z,1008.49
2023-03-29T07:52:38.857Z,1008.50
2023-03-29T07:55:47.317Z,1008.49
2023-03-29T07:58:54.805Z,1008.45
2023-03-29T08:02:03.360Z,1008.50
2023-03-29T08:05:10.672Z,1008.39
2023-03-29T08:08:17.840Z,1008.44
2023-03-29T08:11:26.321Z,1008.44
2023-03-29T08:14:33.319Z,1008.34
2023-03-29T08:17:41.078Z,1008.31
2023-03-29T08:20:49.850Z,1008.43
2023-03-29T08:23:56.781Z,1008.45
2023-03-29T08:27:04.172Z,1008.34
2023-03-29T08:30:12.396Z,1008.44
2023-03-29T08:33:19.983Z,1008.40
2023-03-29T08:36:27.308Z,1008.32
2023-03-29T08:39:34.475Z,1008.33
2023-03-29T08:42:43.183Z,1008.28
2023-03-29T08:45:51.140Z,1008.26
2023-03-29T08:48:58.455Z,1008.23
2023-03-29T08:52:07.104Z,1008.22
2023-03-29T08:55:14.294Z,1008.25
2023-03-29T08:58:21.785Z,1008.23
2023-03-29T09:01:30.504Z,1008.34
2023-03-29T09:04:37.584Z,1008.36
2023-03-29T09:07:45.013Z,1008.35
2023-03-29T09:10:53.728Z,1008.33
2023-03-29T09:14:00.855Z,1008.35
2023-03-29T09:17:08.340Z,1008.29
2023-03-29T09:20:16.630Z,1008.32
2023-03-29T09:23:24.128Z,1008.25
2023-03-29T09:26:31.386Z,1008.32
2023-03-29T09:29:38.264Z,1008.35
2023-03-29T09:32:47.184Z,1008.31
2023-03-29T09:35:54.738Z,1008.25
2023-03-29T09:39:01.438Z,1008.18
2023-03-29T09:42:10.394Z,1008.17
2023-03-29T09:45:17.711Z,1008.14
2023-03-29T09:48:24.796Z,1008.06
2023-03-29T09:51:33.815Z,1008.09
2023-03-29T09:54:40.865Z,1008.02
2023-03-29T09:57:48.195Z,1007.99
2023-03-29T10:00:57.269Z,1007.98
2023-03-29T10:04:04.388Z,1007.94
2023-03-29T10:07:11.474Z,1007.96
2023-03-29T10:10:18.641Z,1007.90
2023-03-29T10:13:27.621Z,1007.90
2023-03-29T10:16:34.873Z,1007.85
2023-03-29T10:19:42.074Z,1007.91
2023-03-29T10:22:50.897Z,1007.85
2023-03-29T10:25:58.199Z,1007.89
2023-03-29T10:29:05.246Z,1007.83
2023-03-29T10:32:14.068Z,1007.82
2023-03-29T10:35:20.947Z,1007.75
2023-03-29T10:38:28.577Z,1007.70
2023-03-29T10:41:37.198Z,1007.77
2023-03-29T10:44:44.015Z,1007.68
2023-03-29T10:47:51.604Z,1007.65
2023-03-29T10:50:59.105Z,1007.74
2023-03-29T10:54:07.288Z,1007.71
2023-03-29T10:57:14.849Z,1007.74
2023-03-29T11:00:21.869Z,1007.66
2023-03-29T11:03:30.585Z,1007.64
2023-03-29T11:06:37.855Z,1007.66
2023-03-29T11:09:45.084Z,1007.74
2023-03-29T11:12:53.738Z,1007.67
2023-03-29T11:16:01.080Z,1007.60
2023-03-29T11:19:08.321Z,1007.53
2023-03-29T11:22:17.223Z,1007.42
2023-03-29T11:25:24.370Z,1007.36
2023-03-29T11:28:31.410Z,1007.32
2023-03-29T11:31:39.301Z,1007.35
2023-03-29T11:34:47.551Z,1007.27
2023-03-29T11:37:55.354Z,1007.23
2023-03-29T11:41:03.432Z,1007.17
2023-03-29T11:44:11.720Z,1007.09
2023-03-29T11:47:19.316Z,1007.07
2023-03-29T11:50:26.792Z,1007.00
2023-03-29T11:53:35.005Z,1006.93
2023-03-29T11:56:42.524Z,1006.97
2023-03-29T11:59:49.767Z,1007.15
2023-03-29T12:02:58.510Z,1007.09
2023-03-29T12:06:06.371Z,1007.03
2023-03-29T12:09:15.490Z,1007.07
2023-03-29T12:12:25.138Z,1006.95
2023-03-29T12:15:32.940Z,1006.89
2023-03-29T12:18:40.157Z,1006.93
2023-03-29T12:21:47.345Z,1006.94
2023-03-29T12:24:56.236Z,1006.86
2023-03-29T12:28:03.238Z,1006.91
2023-03-29T12:31:10.444Z,1006.81
2023-03-29T12:34:19.002Z,1006.70
2023-03-29T12:37:26.473Z,1006.78
2023-03-29T12:40:33.687Z,1006.67
2023-03-29T12:43:42.438Z,1006.70
2023-03-29T12:46:49.813Z,1006.66
2023-03-29T12:49:56.903Z,1006.72
2023-03-29T12:53:05.430Z,1006.64
2023-03-29T12:56:12.829Z,1006.61
2023-03-29T12:59:19.513Z,1006.57
2023-03-29T13:02:27.034Z,1006.57
2023-03-29T13:05:35.803Z,1006.63
2023-03-29T13:08:42.700Z,1006.59
2023-03-29T13:11:50.347Z,1006.51
2023-03-29T13:14:59.236Z,1006.49
2023-03-29T13:18:06.081Z,1006.48
2023-03-29T13:21:13.598Z,1006.48
2023-03-29T13:24:22.194Z,1006.56
2023-03-29T13:27:29.622Z,1006.52
2023-03-29T13:30:36.812Z,1006.49
2023-03-29T13:33:45.466Z,1006.51
2023-03-29T13:36:52.606Z,1006.47
2023-03-29T13:39:59.657Z,1006.36
2023-03-29T13:43:06.847Z,1006.45
2023-03-29T13:46:15.383Z,1006.45
2023-03-29T13:49:22.513Z,1006.42
2023-03-29T13:52:29.939Z,1006.41
2023-03-29T13:55:38.590Z,1006.38
2023-03-29T13:58:45.640Z,1006.32
2023-03-29T14:01:53.239Z,1006.40
2023-03-29T14:05:01.802Z,1006.32
2023-03-29T14:08:09.091Z,1006.35
2023-03-29T14:11:16.693Z,1006.24
2023-03-29T14:14:25.075Z,1006.34
2023-03-29T14:17:32.426Z,1006.33
2023-03-29T14:20:39.830Z,1006.28
2023-03-29T14:23:46.678Z,1006.26
2023-03-29T14:26:55.720Z,1006.37
2023-03-29T14:30:04.075Z,1006.35
2023-03-29T14:33:11.407Z,1006.35
2023-03-29T14:36:20.475Z,1006.34
2023-03-29T14:39:27.569Z,1006.33
2023-03-29T14:42:34.590Z,1006.40
2023-03-29T14:45:43.260Z,1006.47
2023-03-29T14:48:50.765Z,1006.43
2023-03-29T14:51:57.904Z,1006.53
2023-03-29T14:55:06.467Z,1006.49
2023-03-29T14:58:14.142Z,1006.49
2023-03-29T15:01:21.042Z,1006.47
2023-03-29T15:04:29.913Z,1006.46
2023-03-29T15:07:37.330Z,1006.42
2023-03-29T15:10:45.015Z,1006.39
2023-03-29T15:13:52.881Z,1006.35
2023-03-29T15:17:01.831Z,1006.30
2023-03-29T15:20:08.657Z,1006.33
2023-03-29T15:23:16.219Z,1006.29
2023-03-29T15:26:25.154Z,1006.30
2023-03-29T15:29:31.946Z,1006.22
2023-03-29T15:32:39.649Z,1006.23
2023-03-29T15:35:48.384Z,1006.20
2023-03-29T15:38:55.577Z,1006.17
2023-03-29T15:42:03.299Z,1006.13
2023-03-29T15:45:12.240Z,1006.10
2023-03-29T15:48:19.454Z,1006.13
2023-03-29T15:51:26.706Z,1006.09
2023-03-29T15:54:33.911Z,1006.03
2023-03-29T15:57:42.586Z,1005.91
2023-03-29T16:00:50.504Z,1005.83
2023-03-29T16:03:57.635Z,1005.68
2023-03-29T16:07:06.392Z,1005.64
2023-03-29T16:10:13.718Z,1005.59
2023-03-29T16:13:21.252Z,1005.49
2023-03-29T16:16:29.875Z,1005.36
2023-03-29T16:19:36.892Z,1005.36
2023-03-29T16:22:44.439Z,1005.40
2023-03-29T16:25:52.679Z,1005.46
2023-03-29T16:29:00.273Z,1005.39
2023-03-29T16:32:07.816Z,1005.39
2023-03-29T16:35:14.686Z,1005.40
2023-03-29T16:38:23.561Z,1005.37
2023-03-29T16:41:30.932Z,1005.30
2023-03-29T16:44:37.795Z,1005.35
2023-03-29T16:47:46.855Z,1005.33
2023-03-29T16:50:54.377Z,1005.33
2023-03-29T16:54:01.251Z,1005.31
2023-03-29T16:57:10.507Z,1005.22
2023-03-29T17:00:18.007Z,1005.35
2023-03-29T17:03:25.096Z,1005.35
2023-03-29T17:06:33.876Z,1005.34
2023-03-29T17:09:40.948Z,1005.33
2023-03-29T17:12:48.503Z,1005.33
2023-03-29T17:15:55.840Z,1005.43
2023-03-29T17:19:04.207Z,1005.39
2023-03-29T17:22:11.382Z,1005.46
2023-03-29T17:25:18.261Z,1005.47
2023-03-29T17:28:27.402Z,1005.54
2023-03-29T17:31:35.163Z,1005.46
2023-03-29T17:34:41.939Z,1005.45
2023-03-29T17:37:51.055Z,1005.41
2023-03-29T17:40:58.565Z,1005.45
2023-03-29T17:44:05.474Z,1005.39
2023-03-29T17:47:14.641Z,1005.32
2023-03-29T17:50:21.969Z,1005.32
2023-03-29T17:53:29.694Z,1005.23
2023-03-29T17:56:40.051Z,1005.23
2023-03-29T17:59:48.730Z,1005.16
2023-03-29T18:02:56.521Z,1005.12
2023-03-29T18:06:04.182Z,1005.16
2023-03-29T18:09:12.902Z,1005.08
2023-03-29T18:12:20.682Z,1005.02
2023-03-29T18:15:29.071Z,1005.11
2023-03-29T18:18:39.244Z,1004.99
2023-03-29T18:21:47.370Z,1004.89
2023-03-29T18:24:54.338Z,1004.75
2023-03-29T18:28:03.373Z,1004.88
2023-03-29T18:31:10.592Z,1004.84
2023-03-29T18:34:17.779Z,1004.85
2023-03-29T18:37:26.805Z,1004.89
2023-03-29T18:40:33.938Z,1004.93
2023-03-29T18:43:41.185Z,1004.96
2023-03-29T18:46:48.866Z,1005.02
2023-03-29T18:49:57.216Z,1005.03
2023-03-29T18:53:04.459Z,1005.06
2023-03-29T18:56:12.097Z,1005.04
2023-03-29T18:59:20.359Z,1005.14
2023-03-29T19:02:27.955Z,1005.14
2023-03-29T19:05:35.899Z,1005.07
2023-03-29T19:08:44.387Z,1005.14
2023-03-29T19:11:52.053Z,1005.03
2023-03-29T19:15:00.046Z,1004.93
2023-03-29T19:18:08.446Z,1004.91
2023-03-29T19:21:16.110Z,1004.98
2023-03-29T19:24:23.338Z,1004.96
2023-03-29T19:27:30.371Z,1004.92
2023-03-29T19:30:38.761Z,1004.93
2023-03-29T19:33:46.515Z,1004.89
2023-03-29T19:36:53.418Z,1004.86
2023-03-29T19:40:02.028Z,1004.81
2023-03-29T19:43:09.500Z,1004.81
2023-03-29T19:46:16.742Z,1004.76
2023-03-29T19:49:25.469Z,1004.82
2023-03-29T19:52:32.681Z,1004.84
2023-03-29T19:55:39.631Z,1004.76
2023-03-29T19:58:48.620Z,1004.67
2023-03-29T20:01:56.254Z,1004.64
2023-03-29T20:05:03.569Z,1004.60
2023-03-29T20:08:11.933Z,1004.56
2023-03-29T20:11:19.973Z,1004.43
2023-03-29T20:14:26.981Z,1004.30
2023-03-29T20:17:34.070Z,1004.23
2023-03-29T20:20:42.166Z,1004.23
2023-03-29T20:23:50.935Z,1004.21
2023-03-29T20:26:58.120Z,1004.15
2023-03-29T20:30:06.937Z,1004.15
2023-03-29T20:33:13.723Z,1004.14
2023-03-29T20:36:21.572Z,1004.11
2023-03-29T20:39:30.528Z,1004.10
2023-03-29T20:42:37.337Z,1004.03
2023-03-29T20:45:52.547Z,1003.94
2023-03-29T20:48:51.294Z,1003.90
2023-03-29T20:51:58.105Z,1003.83
2023-03-29T20:55:05.849Z,1003.77
2023-03-29T20:58:13.210Z,1003.72
2023-03-29T21:01:22.028Z,1003.70
2023-03-29T21:04:29.483Z,1003.58
2023-03-29T21:07:37.517Z,1003.48
2023-03-29T21:10:39.317Z,1003.46
2023-03-29T21:13:40.289Z,1003.42
2023-03-29T21:16:39.888Z,1003.33
2023-03-29T21:19:50.795Z,1003.22
2023-03-29T21:22:59.919Z,1003.26
2023-03-29T21:26:00.343Z,1003.45
2023-03-29T21:29:11.349Z,1003.39
2023-03-29T21:32:20.499Z,1003.37
2023-03-29T21:35:29.831Z,1003.39
2023-03-29T21:38:39.230Z,1003.39
2023-03-29T21:41:49.704Z,1003.32
2023-03-29T21:44:58.257Z,1003.27
2023-03-29T21:48:06.682Z,1003.16
2023-03-29T21:51:06.949Z,1003.11
2023-03-29T21:54:16.148Z,1003.03
2023-03-29T21:57:24.134Z,1003.03
2023-03-29T22:00:33.746Z,1003.06
2023-03-29T22:03:42.154Z,1003.05
2023-03-29T22:06:49.702Z,1003.12
2023-03-29T22:09:58.650Z,1003.12
2023-03-29T22:13:06.624Z,1003.01
2023-03-29T22:16:13.889Z,1002.99
2023-03-29T22:19:21.768Z,1003.03
2023-03-29T22:22:30.114Z,1003.07
2023-03-29T22:25:37.770Z,1003.04
2023-03-29T22:28:45.884Z,1002.98
2023-03-29T22:31:54.231Z,1002.85
2023-03-29T22:35:02.165Z,1002.74
2023-03-29T22:38:09.665Z,1002.66
2023-03-29T22:41:17.916Z,1002.61
2023-03-29T22:44:25.363Z,1002.51
2023-03-29T22:47:32.866Z,1002.45
2023-03-29T22:50:41.444Z,1002.38
2023-03-29T22:53:49.080Z,1002.28
2023-03-29T22:56:56.161Z,1002.18
2023-03-29T23:00:03.242Z,1002.17
2023-03-29T23:03:12.093Z,1002.10
2023-03-29T23:06:19.136Z,1002.08
2023-03-29T23:09:26.132Z,1002.06
2023-03-29T23:12:34.489Z,1002.03
2023-03-29T23:15:41.872Z,1002.09
2023-03-29T23:18:48.984Z,1001.88
2023-03-29T23:21:57.557Z,1001.89
2023-03-29T23:25:05.157Z,1001.77
2023-03-29T23:28:12.261Z,1001.92
2023-03-29T23:31:20.846Z,1001.95
2023-03-29T23:34:28.361Z,1001.85
2023-03-29T23:37:35.608Z,1001.86
2023-03-29T23:40:42.836Z,1001.81
2023-03-29T23:43:51.451Z,1001.75
2023-03-29T23:46:58.725Z,1001.73
2023-03-29T23:50:05.879Z,1001.72
2023-03-29T23:53:15.088Z,1001.55
2023-03-29T23:56:21.999Z,1001.56
2023-03-29T23:59:29.506Z,1001.60
